sensor_id;sensor_type;location;lat;lon;timestamp;P1;durP1;ratioP1;P2;durP2;ratioP2
10687;SDS011;5392;42.688;23.298;2023-07-13T00:01:48;8.00;;;5.28;;
10687;SDS011;5392;42.688;23.298;2023-07-13T00:04:16;7.80;;;4.95;;
10687;SDS011;5392;42.688;23.298;2023-07-13T00:06:45;6.00;;;5.05;;
10687;SDS011;5392;42.688;23.298;2023-07-13T00:09:13;8.02;;;5.00;;
10687;SDS011;5392;42.688;23.298;2023-07-13T00:11:41;12.60;;;5.85;;
10687;SDS011;5392;42.688;23.298;2023-07-13T00:14:08;8.88;;;4.80;;
10687;SDS011;5392;42.688;23.298;2023-07-13T00:16:36;6.90;;;5.30;;
10687;SDS011;5392;42.688;23.298;2023-07-13T00:19:05;7.80;;;4.13;;
10687;SDS011;5392;42.688;23.298;2023-07-13T00:21:32;6.47;;;3.92;;
10687;SDS011;5392;42.688;23.298;2023-07-13T00:23:59;6.45;;;3.95;;
10687;SDS011;5392;42.688;23.298;2023-07-13T00:26:27;3.90;;;3.70;;
10687;SDS011;5392;42.688;23.298;2023-07-13T00:28:54;5.97;;;4.20;;
10687;SDS011;5392;42.688;23.298;2023-07-13T00:31:20;5.28;;;4.68;;
10687;SDS011;5392;42.688;23.298;2023-07-13T00:33:47;7.47;;;4.15;;
10687;SDS011;5392;42.688;23.298;2023-07-13T00:36:14;4.20;;;3.90;;
10687;SDS011;5392;42.688;23.298;2023-07-13T00:38:41;4.40;;;4.03;;
10687;SDS011;5392;42.688;23.298;2023-07-13T00:41:08;4.78;;;3.85;;
10687;SDS011;5392;42.688;23.298;2023-07-13T00:43:35;3.60;;;3.30;;
10687;SDS011;5392;42.688;23.298;2023-07-13T00:46:09;3.72;;;3.25;;
10687;SDS011;5392;42.688;23.298;2023-07-13T00:48:39;4.15;;;3.90;;
10687;SDS011;5392;42.688;23.298;2023-07-13T00:51:09;6.22;;;4.28;;
10687;SDS011;5392;42.688;23.298;2023-07-13T00:53:37;4.45;;;4.05;;
10687;SDS011;5392;42.688;23.298;2023-07-13T00:56:03;4.97;;;3.90;;
10687;SDS011;5392;42.688;23.298;2023-07-13T00:58:31;5.10;;;4.18;;
10687;SDS011;5392;42.688;23.298;2023-07-13T01:00:58;4.70;;;4.22;;
10687;SDS011;5392;42.688;23.298;2023-07-13T01:03:25;4.43;;;4.13;;
10687;SDS011;5392;42.688;23.298;2023-07-13T01:05:51;6.32;;;4.00;;
10687;SDS011;5392;42.688;23.298;2023-07-13T01:08:20;4.40;;;4.10;;
10687;SDS011;5392;42.688;23.298;2023-07-13T01:10:52;4.72;;;4.07;;
10687;SDS011;5392;42.688;23.298;2023-07-13T01:13:20;3.90;;;3.70;;
10687;SDS011;5392;42.688;23.298;2023-07-13T01:15:48;4.47;;;3.97;;
10687;SDS011;5392;42.688;23.298;2023-07-13T01:18:20;4.40;;;4.00;;
10687;SDS011;5392;42.688;23.298;2023-07-13T01:21:01;4.60;;;4.20;;
10687;SDS011;5392;42.688;23.298;2023-07-13T01:23:30;4.22;;;3.92;;
10687;SDS011;5392;42.688;23.298;2023-07-13T01:25:58;3.95;;;3.70;;
10687;SDS011;5392;42.688;23.298;2023-07-13T01:28:25;6.72;;;4.20;;
10687;SDS011;5392;42.688;23.298;2023-07-13T01:30:57;4.80;;;4.32;;
10687;SDS011;5392;42.688;23.298;2023-07-13T01:33:25;5.80;;;5.30;;
10687;SDS011;5392;42.688;23.298;2023-07-13T01:35:52;5.28;;;4.97;;
10687;SDS011;5392;42.688;23.298;2023-07-13T01:38:20;5.80;;;4.40;;
10687;SDS011;5392;42.688;23.298;2023-07-13T01:40:49;5.45;;;4.80;;
10687;SDS011;5392;42.688;23.298;2023-07-13T01:43:17;5.50;;;4.93;;
10687;SDS011;5392;42.688;23.298;2023-07-13T01:45:45;5.97;;;4.88;;
10687;SDS011;5392;42.688;23.298;2023-07-13T01:48:12;4.80;;;4.20;;
10687;SDS011;5392;42.688;23.298;2023-07-13T01:50:40;5.70;;;5.15;;
10687;SDS011;5392;42.688;23.298;2023-07-13T01:53:07;5.45;;;5.05;;
10687;SDS011;5392;42.688;23.298;2023-07-13T01:55:34;4.93;;;4.63;;
10687;SDS011;5392;42.688;23.298;2023-07-13T01:58:02;4.93;;;4.57;;
10687;SDS011;5392;42.688;23.298;2023-07-13T02:00:30;5.55;;;5.05;;
10687;SDS011;5392;42.688;23.298;2023-07-13T02:02:57;6.65;;;4.93;;
10687;SDS011;5392;42.688;23.298;2023-07-13T02:05:24;7.28;;;4.93;;
10687;SDS011;5392;42.688;23.298;2023-07-13T02:07:51;7.57;;;4.78;;
10687;SDS011;5392;42.688;23.298;2023-07-13T02:10:19;5.15;;;4.63;;
10687;SDS011;5392;42.688;23.298;2023-07-13T02:12:48;5.95;;;5.13;;
10687;SDS011;5392;42.688;23.298;2023-07-13T02:15:16;5.38;;;4.93;;
10687;SDS011;5392;42.688;23.298;2023-07-13T02:17:44;4.28;;;3.95;;
10687;SDS011;5392;42.688;23.298;2023-07-13T02:20:11;5.13;;;4.85;;
10687;SDS011;5392;42.688;23.298;2023-07-13T02:22:38;5.60;;;4.72;;
10687;SDS011;5392;42.688;23.298;2023-07-13T02:25:04;7.15;;;4.88;;
10687;SDS011;5392;42.688;23.298;2023-07-13T02:27:32;9.98;;;5.97;;
10687;SDS011;5392;42.688;23.298;2023-07-13T02:29:58;4.80;;;4.20;;
10687;SDS011;5392;42.688;23.298;2023-07-13T02:32:25;5.15;;;4.75;;
10687;SDS011;5392;42.688;23.298;2023-07-13T02:34:52;6.10;;;4.60;;
10687;SDS011;5392;42.688;23.298;2023-07-13T02:37:19;5.25;;;4.88;;
10687;SDS011;5392;42.688;23.298;2023-07-13T02:39:46;7.78;;;4.68;;
10687;SDS011;5392;42.688;23.298;2023-07-13T02:42:14;5.22;;;4.82;;
10687;SDS011;5392;42.688;23.298;2023-07-13T02:44:41;11.40;;;5.07;;
10687;SDS011;5392;42.688;23.298;2023-07-13T02:47:08;4.70;;;4.30;;
10687;SDS011;5392;42.688;23.298;2023-07-13T02:49:35;8.05;;;6.75;;
10687;SDS011;5392;42.688;23.298;2023-07-13T02:52:03;6.05;;;5.45;;
10687;SDS011;5392;42.688;23.298;2023-07-13T02:54:30;8.77;;;5.90;;
10687;SDS011;5392;42.688;23.298;2023-07-13T02:56:57;7.65;;;5.38;;
10687;SDS011;5392;42.688;23.298;2023-07-13T02:59:23;7.35;;;5.22;;
10687;SDS011;5392;42.688;23.298;2023-07-13T03:01:50;4.65;;;4.45;;
10687;SDS011;5392;42.688;23.298;2023-07-13T03:04:17;11.35;;;5.80;;
10687;SDS011;5392;42.688;23.298;2023-07-13T03:06:46;4.88;;;4.70;;
10687;SDS011;5392;42.688;23.298;2023-07-13T03:09:13;7.75;;;5.13;;
10687;SDS011;5392;42.688;23.298;2023-07-13T03:11:40;8.82;;;6.10;;
10687;SDS011;5392;42.688;23.298;2023-07-13T03:14:07;5.82;;;5.13;;
10687;SDS011;5392;42.688;23.298;2023-07-13T03:16:34;7.40;;;5.07;;
10687;SDS011;5392;42.688;23.298;2023-07-13T03:19:01;7.70;;;5.40;;
10687;SDS011;5392;42.688;23.298;2023-07-13T03:21:28;10.13;;;5.25;;
10687;SDS011;5392;42.688;23.298;2023-07-13T03:23:55;6.00;;;5.57;;
10687;SDS011;5392;42.688;23.298;2023-07-13T03:26:22;7.55;;;5.82;;
10687;SDS011;5392;42.688;23.298;2023-07-13T03:28:49;8.75;;;5.60;;
10687;SDS011;5392;42.688;23.298;2023-07-13T03:31:17;6.07;;;5.22;;
10687;SDS011;5392;42.688;23.298;2023-07-13T03:33:46;6.40;;;5.35;;
10687;SDS011;5392;42.688;23.298;2023-07-13T03:36:21;10.35;;;5.50;;
10687;SDS011;5392;42.688;23.298;2023-07-13T03:38:51;7.85;;;5.72;;
10687;SDS011;5392;42.688;23.298;2023-07-13T03:41:20;6.80;;;5.72;;
10687;SDS011;5392;42.688;23.298;2023-07-13T03:43:47;8.77;;;6.45;;
10687;SDS011;5392;42.688;23.298;2023-07-13T03:46:14;5.65;;;5.15;;
10687;SDS011;5392;42.688;23.298;2023-07-13T03:48:43;8.75;;;6.10;;
10687;SDS011;5392;42.688;23.298;2023-07-13T03:51:12;6.85;;;6.28;;
10687;SDS011;5392;42.688;23.298;2023-07-13T03:53:41;10.75;;;6.30;;
10687;SDS011;5392;42.688;23.298;2023-07-13T03:56:09;6.95;;;6.22;;
10687;SDS011;5392;42.688;23.298;2023-07-13T03:58:38;11.13;;;6.03;;
10687;SDS011;5392;42.688;23.298;2023-07-13T04:01:07;7.53;;;6.05;;
10687;SDS011;5392;42.688;23.298;2023-07-13T04:03:35;8.25;;;5.45;;
10687;SDS011;5392;42.688;23.298;2023-07-13T04:06:04;7.82;;;5.47;;
10687;SDS011;5392;42.688;23.298;2023-07-13T04:08:33;13.45;;;6.10;;
10687;SDS011;5392;42.688;23.298;2023-07-13T04:11:02;11.32;;;5.68;;
10687;SDS011;5392;42.688;23.298;2023-07-13T04:13:30;10.77;;;6.45;;
10687;SDS011;5392;42.688;23.298;2023-07-13T04:15:57;9.43;;;6.75;;
10687;SDS011;5392;42.688;23.298;2023-07-13T04:18:24;7.53;;;5.80;;
10687;SDS011;5392;42.688;23.298;2023-07-13T04:20:51;6.95;;;6.13;;
10687;SDS011;5392;42.688;23.298;2023-07-13T04:23:18;10.65;;;5.85;;
10687;SDS011;5392;42.688;23.298;2023-07-13T04:25:48;8.95;;;5.63;;
10687;SDS011;5392;42.688;23.298;2023-07-13T04:28:18;9.52;;;5.43;;
10687;SDS011;5392;42.688;23.298;2023-07-13T04:30:46;6.43;;;5.88;;
10687;SDS011;5392;42.688;23.298;2023-07-13T04:33:13;10.75;;;5.72;;
10687;SDS011;5392;42.688;23.298;2023-07-13T04:35:39;6.53;;;5.90;;
10687;SDS011;5392;42.688;23.298;2023-07-13T04:38:06;8.77;;;6.18;;
10687;SDS011;5392;42.688;23.298;2023-07-13T04:40:33;10.00;;;6.25;;
10687;SDS011;5392;42.688;23.298;2023-07-13T04:43:00;11.85;;;5.82;;
10687;SDS011;5392;42.688;23.298;2023-07-13T04:45:26;11.30;;;6.22;;
10687;SDS011;5392;42.688;23.298;2023-07-13T04:47:53;14.38;;;5.85;;
10687;SDS011;5392;42.688;23.298;2023-07-13T04:50:20;10.30;;;7.18;;
10687;SDS011;5392;42.688;23.298;2023-07-13T04:52:50;12.52;;;7.20;;
10687;SDS011;5392;42.688;23.298;2023-07-13T04:55:18;14.70;;;7.75;;
10687;SDS011;5392;42.688;23.298;2023-07-13T04:57:45;10.10;;;6.35;;
10687;SDS011;5392;42.688;23.298;2023-07-13T05:00:13;7.93;;;6.20;;
10687;SDS011;5392;42.688;23.298;2023-07-13T05:02:43;11.93;;;7.32;;
10687;SDS011;5392;42.688;23.298;2023-07-13T05:05:11;11.25;;;6.20;;
10687;SDS011;5392;42.688;23.298;2023-07-13T05:07:39;10.02;;;6.47;;
10687;SDS011;5392;42.688;23.298;2023-07-13T05:10:06;10.98;;;5.72;;
10687;SDS011;5392;42.688;23.298;2023-07-13T05:12:33;8.65;;;6.57;;
10687;SDS011;5392;42.688;23.298;2023-07-13T05:15:00;6.50;;;5.63;;
10687;SDS011;5392;42.688;23.298;2023-07-13T05:17:28;11.75;;;5.88;;
10687;SDS011;5392;42.688;23.298;2023-07-13T05:19:55;8.15;;;6.00;;
10687;SDS011;5392;42.688;23.298;2023-07-13T05:22:22;7.18;;;6.38;;
10687;SDS011;5392;42.688;23.298;2023-07-13T05:24:48;16.73;;;7.47;;
10687;SDS011;5392;42.688;23.298;2023-07-13T05:27:15;8.35;;;6.47;;
10687;SDS011;5392;42.688;23.298;2023-07-13T05:29:42;9.57;;;6.20;;
10687;SDS011;5392;42.688;23.298;2023-07-13T05:32:09;10.02;;;6.15;;
10687;SDS011;5392;42.688;23.298;2023-07-13T05:34:36;7.28;;;6.32;;
10687;SDS011;5392;42.688;23.298;2023-07-13T05:37:03;6.13;;;5.45;;
10687;SDS011;5392;42.688;23.298;2023-07-13T05:39:30;6.50;;;5.35;;
10687;SDS011;5392;42.688;23.298;2023-07-13T05:41:57;13.27;;;6.55;;
10687;SDS011;5392;42.688;23.298;2023-07-13T05:44:23;9.25;;;6.32;;
10687;SDS011;5392;42.688;23.298;2023-07-13T05:46:50;8.60;;;5.70;;
10687;SDS011;5392;42.688;23.298;2023-07-13T05:49:17;10.13;;;6.78;;
10687;SDS011;5392;42.688;23.298;2023-07-13T05:51:43;7.30;;;6.15;;
10687;SDS011;5392;42.688;23.298;2023-07-13T05:54:10;8.77;;;5.82;;
10687;SDS011;5392;42.688;23.298;2023-07-13T05:56:37;8.10;;;6.15;;
10687;SDS011;5392;42.688;23.298;2023-07-13T05:59:04;8.10;;;5.88;;
10687;SDS011;5392;42.688;23.298;2023-07-13T06:01:30;7.80;;;6.47;;
10687;SDS011;5392;42.688;23.298;2023-07-13T06:03:58;7.85;;;6.78;;
10687;SDS011;5392;42.688;23.298;2023-07-13T06:06:25;8.02;;;7.05;;
10687;SDS011;5392;42.688;23.298;2023-07-13T06:08:51;9.70;;;7.10;;
10687;SDS011;5392;42.688;23.298;2023-07-13T06:11:19;7.35;;;6.63;;
10687;SDS011;5392;42.688;23.298;2023-07-13T06:13:48;11.25;;;6.80;;
10687;SDS011;5392;42.688;23.298;2023-07-13T06:16:16;7.80;;;7.13;;
10687;SDS011;5392;42.688;23.298;2023-07-13T06:18:43;12.80;;;7.90;;
10687;SDS011;5392;42.688;23.298;2023-07-13T06:21:15;8.60;;;6.38;;
10687;SDS011;5392;42.688;23.298;2023-07-13T06:23:43;10.65;;;6.72;;
10687;SDS011;5392;42.688;23.298;2023-07-13T06:26:11;9.70;;;7.22;;
10687;SDS011;5392;42.688;23.298;2023-07-13T06:28:38;8.63;;;6.03;;
10687;SDS011;5392;42.688;23.298;2023-07-13T06:31:07;8.93;;;6.05;;
10687;SDS011;5392;42.688;23.298;2023-07-13T06:33:36;10.85;;;6.75;;
10687;SDS011;5392;42.688;23.298;2023-07-13T06:36:04;11.73;;;6.80;;
10687;SDS011;5392;42.688;23.298;2023-07-13T06:38:32;8.20;;;6.63;;
10687;SDS011;5392;42.688;23.298;2023-07-13T06:40:58;10.32;;;7.25;;
10687;SDS011;5392;42.688;23.298;2023-07-13T06:43:25;9.18;;;7.60;;
10687;SDS011;5392;42.688;23.298;2023-07-13T06:45:54;7.82;;;7.07;;
10687;SDS011;5392;42.688;23.298;2023-07-13T06:48:21;9.02;;;7.40;;
10687;SDS011;5392;42.688;23.298;2023-07-13T06:50:49;10.43;;;7.70;;
10687;SDS011;5392;42.688;23.298;2023-07-13T06:53:17;13.55;;;6.95;;
10687;SDS011;5392;42.688;23.298;2023-07-13T06:55:45;8.43;;;7.15;;
10687;SDS011;5392;42.688;23.298;2023-07-13T06:58:13;7.85;;;7.07;;
10687;SDS011;5392;42.688;23.298;2023-07-13T07:00:40;11.20;;;7.18;;
10687;SDS011;5392;42.688;23.298;2023-07-13T07:03:08;9.85;;;6.25;;
10687;SDS011;5392;42.688;23.298;2023-07-13T07:05:35;10.15;;;7.05;;
10687;SDS011;5392;42.688;23.298;2023-07-13T07:08:02;11.75;;;7.20;;
10687;SDS011;5392;42.688;23.298;2023-07-13T07:10:29;12.15;;;6.95;;
10687;SDS011;5392;42.688;23.298;2023-07-13T07:12:57;17.45;;;8.23;;
10687;SDS011;5392;42.688;23.298;2023-07-13T07:15:24;8.93;;;6.78;;
10687;SDS011;5392;42.688;23.298;2023-07-13T07:17:51;7.55;;;6.93;;
10687;SDS011;5392;42.688;23.298;2023-07-13T07:20:18;7.38;;;6.65;;
10687;SDS011;5392;42.688;23.298;2023-07-13T07:22:47;13.63;;;6.60;;
10687;SDS011;5392;42.688;23.298;2023-07-13T07:25:14;8.02;;;6.88;;
10687;SDS011;5392;42.688;23.298;2023-07-13T07:27:41;9.07;;;6.88;;
10687;SDS011;5392;42.688;23.298;2023-07-13T07:30:11;7.53;;;5.97;;
10687;SDS011;5392;42.688;23.298;2023-07-13T07:32:41;7.57;;;6.28;;
10687;SDS011;5392;42.688;23.298;2023-07-13T07:35:11;10.93;;;5.88;;
10687;SDS011;5392;42.688;23.298;2023-07-13T07:37:37;8.73;;;6.18;;
10687;SDS011;5392;42.688;23.298;2023-07-13T07:40:07;9.77;;;6.25;;
10687;SDS011;5392;42.688;23.298;2023-07-13T07:42:37;9.57;;;6.43;;
10687;SDS011;5392;42.688;23.298;2023-07-13T07:45:04;6.60;;;5.97;;
10687;SDS011;5392;42.688;23.298;2023-07-13T07:47:31;9.20;;;5.78;;
10687;SDS011;5392;42.688;23.298;2023-07-13T07:49:58;7.55;;;5.40;;
10687;SDS011;5392;42.688;23.298;2023-07-13T07:52:24;4.70;;;4.40;;
10687;SDS011;5392;42.688;23.298;2023-07-13T07:54:51;5.00;;;4.43;;
10687;SDS011;5392;42.688;23.298;2023-07-13T07:57:21;4.82;;;4.55;;
10687;SDS011;5392;42.688;23.298;2023-07-13T07:59:50;6.22;;;4.53;;
10687;SDS011;5392;42.688;23.298;2023-07-13T08:02:20;5.72;;;4.88;;
10687;SDS011;5392;42.688;23.298;2023-07-13T08:04:50;6.30;;;4.63;;
10687;SDS011;5392;42.688;23.298;2023-07-13T08:07:19;8.25;;;5.10;;
10687;SDS011;5392;42.688;23.298;2023-07-13T08:09:46;4.68;;;4.22;;
10687;SDS011;5392;42.688;23.298;2023-07-13T08:12:13;6.03;;;4.20;;
10687;SDS011;5392;42.688;23.298;2023-07-13T08:14:43;4.80;;;4.40;;
10687;SDS011;5392;42.688;23.298;2023-07-13T08:17:19;6.53;;;4.65;;
10687;SDS011;5392;42.688;23.298;2023-07-13T08:19:47;8.60;;;4.75;;
10687;SDS011;5392;42.688;23.298;2023-07-13T08:22:13;4.32;;;4.00;;
10687;SDS011;5392;42.688;23.298;2023-07-13T08:24:40;12.63;;;4.45;;
10687;SDS011;5392;42.688;23.298;2023-07-13T08:27:09;4.53;;;4.10;;
10687;SDS011;5392;42.688;23.298;2023-07-13T08:29:38;6.47;;;4.18;;
10687;SDS011;5392;42.688;23.298;2023-07-13T08:32:06;4.82;;;4.45;;
10687;SDS011;5392;42.688;23.298;2023-07-13T08:34:36;6.05;;;4.47;;
10687;SDS011;5392;42.688;23.298;2023-07-13T08:37:03;4.57;;;4.15;;
10687;SDS011;5392;42.688;23.298;2023-07-13T08:39:30;5.75;;;4.57;;
10687;SDS011;5392;42.688;23.298;2023-07-13T08:47:42;8.07;;;4.05;;
10687;SDS011;5392;42.688;23.298;2023-07-13T08:50:16;7.63;;;4.53;;
10687;SDS011;5392;42.688;23.298;2023-07-13T08:52:45;7.07;;;3.97;;
10687;SDS011;5392;42.688;23.298;2023-07-13T08:55:24;4.40;;;4.00;;
10687;SDS011;5392;42.688;23.298;2023-07-13T08:58:14;8.32;;;4.22;;
10687;SDS011;5392;42.688;23.298;2023-07-13T09:00:50;6.20;;;4.25;;
10687;SDS011;5392;42.688;23.298;2023-07-13T09:06:43;8.15;;;4.40;;
10687;SDS011;5392;42.688;23.298;2023-07-13T09:09:20;7.82;;;4.45;;
10687;SDS011;5392;42.688;23.298;2023-07-13T09:14:57;8.23;;;5.32;;
10687;SDS011;5392;42.688;23.298;2023-07-13T09:17:27;5.72;;;4.57;;
10687;SDS011;5392;42.688;23.298;2023-07-13T09:20:00;5.88;;;5.28;;
10687;SDS011;5392;42.688;23.298;2023-07-13T09:22:47;6.43;;;5.65;;
10687;SDS011;5392;42.688;23.298;2023-07-13T09:25:31;7.95;;;5.80;;
10687;SDS011;5392;42.688;23.298;2023-07-13T09:28:09;9.50;;;5.35;;
10687;SDS011;5392;42.688;23.298;2023-07-13T09:30:58;5.97;;;5.38;;
10687;SDS011;5392;42.688;23.298;2023-07-13T09:33:31;7.53;;;6.30;;
10687;SDS011;5392;42.688;23.298;2023-07-13T09:35:58;10.60;;;6.72;;
10687;SDS011;5392;42.688;23.298;2023-07-13T09:38:26;11.68;;;6.43;;
10687;SDS011;5392;42.688;23.298;2023-07-13T09:41:01;6.90;;;6.18;;
10687;SDS011;5392;42.688;23.298;2023-07-13T09:43:38;7.60;;;6.05;;
10687;SDS011;5392;42.688;23.298;2023-07-13T09:46:21;10.55;;;6.47;;
10687;SDS011;5392;42.688;23.298;2023-07-13T09:48:49;11.43;;;5.80;;
10687;SDS011;5392;42.688;23.298;2023-07-13T09:51:16;9.95;;;6.13;;
10687;SDS011;5392;42.688;23.298;2023-07-13T09:53:43;11.18;;;6.30;;
10687;SDS011;5392;42.688;23.298;2023-07-13T09:56:23;7.75;;;6.28;;
10687;SDS011;5392;42.688;23.298;2023-07-13T09:58:53;3.40;;;3.00;;
10687;SDS011;5392;42.688;23.298;2023-07-13T10:01:36;9.45;;;6.10;;
10687;SDS011;5392;42.688;23.298;2023-07-13T10:04:11;5.07;;;2.22;;
10687;SDS011;5392;42.688;23.298;2023-07-13T10:06:40;6.10;;;2.47;;
10687;SDS011;5392;42.688;23.298;2023-07-13T10:09:10;5.57;;;2.60;;
10687;SDS011;5392;42.688;23.298;2023-07-13T10:11:41;8.88;;;3.03;;
10687;SDS011;5392;42.688;23.298;2023-07-13T10:14:17;2.00;;;1.88;;
10687;SDS011;5392;42.688;23.298;2023-07-13T10:16:47;8.60;;;2.40;;
10687;SDS011;5392;42.688;23.298;2023-07-13T10:19:21;9.38;;;2.60;;
10687;SDS011;5392;42.688;23.298;2023-07-13T10:21:54;11.73;;;2.97;;
10687;SDS011;5392;42.688;23.298;2023-07-13T10:24:22;4.65;;;2.50;;
10687;SDS011;5392;42.688;23.298;2023-07-13T10:29:34;8.25;;;2.00;;
10687;SDS011;5392;42.688;23.298;2023-07-13T10:32:09;6.60;;;1.98;;
10687;SDS011;5392;42.688;23.298;2023-07-13T10:34:38;4.63;;;1.95;;
10687;SDS011;5392;42.688;23.298;2023-07-13T10:37:06;8.20;;;2.05;;
10687;SDS011;5392;42.688;23.298;2023-07-13T10:39:42;10.50;;;2.58;;
10687;SDS011;5392;42.688;23.298;2023-07-13T10:42:11;6.15;;;1.95;;
10687;SDS011;5392;42.688;23.298;2023-07-13T10:44:42;2.17;;;1.88;;
10687;SDS011;5392;42.688;23.298;2023-07-13T10:47:15;4.78;;;2.33;;
10687;SDS011;5392;42.688;23.298;2023-07-13T10:49:44;15.13;;;3.42;;
10687;SDS011;5392;42.688;23.298;2023-07-13T10:52:40;3.22;;;2.10;;
10687;SDS011;5392;42.688;23.298;2023-07-13T10:55:36;3.35;;;1.35;;
10687;SDS011;5392;42.688;23.298;2023-07-13T10:58:21;9.00;;;2.60;;
10687;SDS011;5392;42.688;23.298;2023-07-13T11:01:15;7.82;;;2.13;;
10687;SDS011;5392;42.688;23.298;2023-07-13T11:13:57;5.60;;;2.33;;
10687;SDS011;5392;42.688;23.298;2023-07-13T11:16:35;3.60;;;2.20;;
10687;SDS011;5392;42.688;23.298;2023-07-13T11:21:34;5.43;;;2.00;;
10687;SDS011;5392;42.688;23.298;2023-07-13T11:24:02;9.25;;;2.67;;
10687;SDS011;5392;42.688;23.298;2023-07-13T11:26:44;3.17;;;2.15;;
10687;SDS011;5392;42.688;23.298;2023-07-13T11:31:53;7.38;;;2.13;;
10687;SDS011;5392;42.688;23.298;2023-07-13T11:34:25;6.43;;;1.98;;
10687;SDS011;5392;42.688;23.298;2023-07-13T11:36:57;4.05;;;2.00;;
10687;SDS011;5392;42.688;23.298;2023-07-13T11:39:32;2.15;;;1.98;;
10687;SDS011;5392;42.688;23.298;2023-07-13T11:42:04;5.38;;;2.67;;
10687;SDS011;5392;42.688;23.298;2023-07-13T11:44:33;5.57;;;2.10;;
10687;SDS011;5392;42.688;23.298;2023-07-13T11:47:08;11.52;;;2.70;;
10687;SDS011;5392;42.688;23.298;2023-07-13T11:49:44;5.68;;;2.55;;
10687;SDS011;5392;42.688;23.298;2023-07-13T11:52:22;4.70;;;2.28;;
10687;SDS011;5392;42.688;23.298;2023-07-13T11:54:57;6.18;;;2.45;;
10687;SDS011;5392;42.688;23.298;2023-07-13T11:57:28;6.10;;;2.60;;
10687;SDS011;5392;42.688;23.298;2023-07-13T12:00:04;6.90;;;2.75;;
10687;SDS011;5392;42.688;23.298;2023-07-13T12:02:39;4.97;;;1.98;;
10687;SDS011;5392;42.688;23.298;2023-07-13T12:05:10;7.88;;;2.63;;
10687;SDS011;5392;42.688;23.298;2023-07-13T12:07:39;6.75;;;2.63;;
10687;SDS011;5392;42.688;23.298;2023-07-13T12:12:55;4.78;;;1.90;;
10687;SDS011;5392;42.688;23.298;2023-07-13T12:15:27;6.57;;;1.77;;
10687;SDS011;5392;42.688;23.298;2023-07-13T12:18:02;6.30;;;2.05;;
10687;SDS011;5392;42.688;23.298;2023-07-13T12:20:37;4.45;;;1.48;;
10687;SDS011;5392;42.688;23.298;2023-07-13T12:23:05;5.80;;;2.00;;
10687;SDS011;5392;42.688;23.298;2023-07-13T12:25:37;4.43;;;2.10;;
10687;SDS011;5392;42.688;23.298;2023-07-13T12:28:19;6.78;;;2.10;;
10687;SDS011;5392;42.688;23.298;2023-07-13T12:31:44;6.00;;;1.95;;
10687;SDS011;5392;42.688;23.298;2023-07-13T12:34:08;5.63;;;2.03;;
10687;SDS011;5392;42.688;23.298;2023-07-13T12:36:45;5.63;;;2.10;;
10687;SDS011;5392;42.688;23.298;2023-07-13T12:39:16;5.63;;;2.35;;
10687;SDS011;5392;42.688;23.298;2023-07-13T12:42:21;6.10;;;1.77;;
10687;SDS011;5392;42.688;23.298;2023-07-13T12:44:53;7.50;;;2.10;;
10687;SDS011;5392;42.688;23.298;2023-07-13T12:47:24;5.90;;;1.58;;
10687;SDS011;5392;42.688;23.298;2023-07-13T12:49:56;8.68;;;1.90;;
10687;SDS011;5392;42.688;23.298;2023-07-13T12:52:29;4.55;;;2.80;;
10687;SDS011;5392;42.688;23.298;2023-07-13T12:55:11;7.68;;;1.80;;
10687;SDS011;5392;42.688;23.298;2023-07-13T12:57:53;4.03;;;2.28;;
10687;SDS011;5392;42.688;23.298;2023-07-13T13:00:26;6.85;;;1.95;;
10687;SDS011;5392;42.688;23.298;2023-07-13T13:03:02;5.85;;;1.92;;
10687;SDS011;5392;42.688;23.298;2023-07-13T13:06:26;10.48;;;1.85;;
10687;SDS011;5392;42.688;23.298;2023-07-13T13:08:49;9.13;;;2.22;;
10687;SDS011;5392;42.688;23.298;2023-07-13T13:11:19;10.32;;;5.30;;
10687;SDS011;5392;42.688;23.298;2023-07-13T13:13:46;6.28;;;2.67;;
10687;SDS011;5392;42.688;23.298;2023-07-13T13:18:53;8.98;;;2.53;;
10687;SDS011;5392;42.688;23.298;2023-07-13T13:21:23;7.05;;;2.15;;
10687;SDS011;5392;42.688;23.298;2023-07-13T13:23:51;8.85;;;2.65;;
10687;SDS011;5392;42.688;23.298;2023-07-13T13:26:21;4.47;;;2.13;;
10687;SDS011;5392;42.688;23.298;2023-07-13T13:28:48;7.10;;;2.35;;
10687;SDS011;5392;42.688;23.298;2023-07-13T13:31:15;10.77;;;2.30;;
10687;SDS011;5392;42.688;23.298;2023-07-13T13:33:43;7.07;;;2.42;;
10687;SDS011;5392;42.688;23.298;2023-07-13T13:36:15;10.80;;;2.38;;
10687;SDS011;5392;42.688;23.298;2023-07-13T13:38:49;13.48;;;2.42;;
10687;SDS011;5392;42.688;23.298;2023-07-13T13:41:16;9.85;;;2.22;;
10687;SDS011;5392;42.688;23.298;2023-07-13T13:43:43;10.23;;;2.03;;
10687;SDS011;5392;42.688;23.298;2023-07-13T13:46:15;7.40;;;1.95;;
10687;SDS011;5392;42.688;23.298;2023-07-13T13:48:44;7.05;;;2.00;;
10687;SDS011;5392;42.688;23.298;2023-07-13T13:51:18;11.45;;;1.70;;
10687;SDS011;5392;42.688;23.298;2023-07-13T13:53:48;5.45;;;2.10;;
10687;SDS011;5392;42.688;23.298;2023-07-13T13:56:15;4.00;;;2.35;;
10687;SDS011;5392;42.688;23.298;2023-07-13T13:58:44;11.32;;;2.47;;
10687;SDS011;5392;42.688;23.298;2023-07-13T14:01:12;5.45;;;2.10;;
10687;SDS011;5392;42.688;23.298;2023-07-13T14:03:40;6.22;;;2.20;;
10687;SDS011;5392;42.688;23.298;2023-07-13T14:06:09;5.65;;;2.05;;
10687;SDS011;5392;42.688;23.298;2023-07-13T14:08:39;9.60;;;3.05;;
10687;SDS011;5392;42.688;23.298;2023-07-13T14:11:07;10.82;;;2.55;;
10687;SDS011;5392;42.688;23.298;2023-07-13T14:13:39;4.95;;;1.90;;
10687;SDS011;5392;42.688;23.298;2023-07-13T14:16:15;10.15;;;2.80;;
10687;SDS011;5392;42.688;23.298;2023-07-13T14:18:44;10.68;;;2.42;;
10687;SDS011;5392;42.688;23.298;2023-07-13T14:21:15;5.25;;;1.98;;
10687;SDS011;5392;42.688;23.298;2023-07-13T14:23:44;5.55;;;2.22;;
10687;SDS011;5392;42.688;23.298;2023-07-13T14:26:15;4.78;;;2.20;;
10687;SDS011;5392;42.688;23.298;2023-07-13T14:28:50;6.78;;;2.55;;
10687;SDS011;5392;42.688;23.298;2023-07-13T14:31:19;6.88;;;2.08;;
10687;SDS011;5392;42.688;23.298;2023-07-13T14:33:48;4.60;;;2.28;;
10687;SDS011;5392;42.688;23.298;2023-07-13T14:36:23;8.57;;;2.60;;
10687;SDS011;5392;42.688;23.298;2023-07-13T14:38:51;9.23;;;2.53;;
10687;SDS011;5392;42.688;23.298;2023-07-13T14:41:17;9.88;;;2.63;;
10687;SDS011;5392;42.688;23.298;2023-07-13T14:43:44;5.78;;;2.45;;
10687;SDS011;5392;42.688;23.298;2023-07-13T14:46:16;15.40;;;2.83;;
10687;SDS011;5392;42.688;23.298;2023-07-13T14:48:50;8.93;;;2.67;;
10687;SDS011;5392;42.688;23.298;2023-07-13T14:51:17;9.30;;;2.58;;
10687;SDS011;5392;42.688;23.298;2023-07-13T14:53:44;10.57;;;2.63;;
10687;SDS011;5392;42.688;23.298;2023-07-13T14:56:11;8.65;;;4.97;;
10687;SDS011;5392;42.688;23.298;2023-07-13T14:58:39;5.03;;;2.45;;
10687;SDS011;5392;42.688;23.298;2023-07-13T15:01:12;5.32;;;1.88;;
10687;SDS011;5392;42.688;23.298;2023-07-13T15:03:41;6.93;;;3.88;;
10687;SDS011;5392;42.688;23.298;2023-07-13T15:06:11;5.25;;;2.95;;
10687;SDS011;5392;42.688;23.298;2023-07-13T15:08:39;8.95;;;2.50;;
10687;SDS011;5392;42.688;23.298;2023-07-13T15:11:09;8.90;;;2.50;;
10687;SDS011;5392;42.688;23.298;2023-07-13T15:13:40;3.50;;;1.92;;
10687;SDS011;5392;42.688;23.298;2023-07-13T15:16:18;8.70;;;2.53;;
10687;SDS011;5392;42.688;23.298;2023-07-13T15:18:50;11.93;;;2.47;;
10687;SDS011;5392;42.688;23.298;2023-07-13T15:21:21;11.88;;;2.90;;
10687;SDS011;5392;42.688;23.298;2023-07-13T15:23:50;6.38;;;2.28;;
10687;SDS011;5392;42.688;23.298;2023-07-13T15:26:18;8.75;;;2.55;;
10687;SDS011;5392;42.688;23.298;2023-07-13T15:28:45;11.13;;;2.83;;
10687;SDS011;5392;42.688;23.298;2023-07-13T15:31:18;7.18;;;3.05;;
10687;SDS011;5392;42.688;23.298;2023-07-13T15:33:47;8.35;;;2.28;;
10687;SDS011;5392;42.688;23.298;2023-07-13T15:36:16;7.82;;;1.77;;
10687;SDS011;5392;42.688;23.298;2023-07-13T15:38:44;11.75;;;2.58;;